Sun-Tan Village, FL

2:48 AM EST on December 03, 2016 (GMT -0500)
U of Miami Health System WeatherSTEM | | Change Station

Elev 68 ft 25.79 °N, 80.22 °W | Updated 3 minutes ago

Scattered Clouds
Scattered Clouds
75.1 °F
Feels Like 75 °F
N
7.0
Wind Variable Wind from ESE

Today
High -- | Low -- °F
--% Chance of Precip.
Yesterday
High -- | Low -- °F
Precip. -- in
Pressure 30.06 in
Visibility 10.0 miles
Clouds Few 2300 ft
Few 4000 ft
Scattered Clouds 5000 ft
Heat Index 75 °F
Dew Point 70 °F
Humidity 83%
Rainfall 0.00 in
Snow Depth Not available.
6:52 AM 5:29 PM
Waxing Crescent, 13% visible
METAR KMIA 030653Z 05007KT 10SM FEW023 FEW040 SCT050 23/20 A3005 RMK AO2 SLP177 T02330200
Pressure 30.06 in
Visibility 10.0 miles
Clouds Few 2300 ft
Few 4000 ft
Scattered Clouds 5000 ft
Heat Index 75 °F
Dew Point 70 °F
Humidity 83%
Rainfall 0.00 in
Snow Depth Not available.
6:52 AM 5:29 PM
Waxing Crescent, 13% visible
METAR KMIA 030653Z 05007KT 10SM FEW023 FEW040 SCT050 23/20 A3005 RMK AO2 SLP177 T02330200

10-Day Weather Forecast

Almanac

Astronomy

Dec. 03, 2016 Rise Set
Actual Time
Civil Twilight
Nautical Twilight
Astronomical Twilight
Moon
Length of Visible Light
Length of Day
Tomorrow will be .
, % of the Moon is Illuminated

Today's Extremes

State Highs State Lows

Community

WunderPhotos

Upload Photos

1,955,432 photos uploaded!

WunderBlog® & News

Nearby

Air Quality

  Air Quality AQ Index Pollutant
Not available.

Snow Depth

Station Depth Elevation

Earthquake Activity

City Distance Mag. Time & Date
Minimum magnitude displayed is 2.5.

Coastal Water Temperatures

Place Temperature

Stations

Nearby Weather Stations

Station Location Temp. Windchill Dew Point Humidity Wind Precip. Elev Updated Type
                   

Watches & Warnings

There are currently no watches in effect.